Time;durP1;ratioP1;P1;durP2;ratioP2;P2;SDS_P1;SDS_P2;PMS_P1;PMS_P2;Temp;Humidity;BMP_temperature;BMP_pressure;BME280_temperature;BME280_humidity;BME280_pressure;Samples;Min_cycle;Max_cycle;Signal;HPM_P1;HPM_P2
2022/12/21 00:02:41;;;;;;;44.13;23.63;;;4.30;99.90;;;;;;5089638;28;20306;-77
2022/12/21 00:05:30;;;;;;;43.20;24.03;;;4.20;99.90;;;;;;5092370;27;20708;-76
2022/12/21 00:08:18;;;;;;;47.60;23.97;;;4.30;99.90;;;;;;5110873;27;20226;-73
2022/12/21 00:11:08;;;;;;;45.30;23.40;;;4.30;99.90;;;;;;5113341;27;20225;-78
2022/12/21 00:13:59;;;;;;;47.77;24.80;;;4.20;99.90;;;;;;5108473;27;20849;-78
2022/12/21 00:16:48;;;;;;;46.27;24.57;;;4.30;99.90;;;;;;5111352;27;20237;-78
2022/12/21 00:19:40;;;;;;;46.57;25.33;;;4.30;99.90;;;;;;5105041;27;20630;-76
2022/12/21 00:22:29;;;;;;;51.40;23.87;;;4.30;99.90;;;;;;5105561;28;20214;-76
2022/12/21 00:25:18;;;;;;;45.13;24.87;;;4.30;99.90;;;;;;5111449;27;20372;-76
2022/12/21 00:28:07;;;;;;;44.10;22.83;;;;;;;;;;5117928;27;20958;-76
2022/12/21 00:30:56;;;;;;;41.60;23.23;;;4.40;99.90;;;;;;5092362;28;20742;-77
2022/12/21 00:33:46;;;;;;;42.07;24.70;;;4.30;99.90;;;;;;5095748;28;20707;-77
2022/12/21 00:36:36;;;;;;;47.10;23.87;;;4.30;99.90;;;;;;5094370;27;20219;-77
2022/12/21 00:39:27;;;;;;;44.43;24.40;;;4.30;99.90;;;;;;5109334;28;20222;-77
2022/12/21 00:42:17;;;;;;;44.83;23.67;;;4.30;99.90;;;;;;5108119;27;20233;-76
2022/12/21 00:45:07;;;;;;;39.93;22.77;;;4.30;99.90;;;;;;5055002;28;20225;-76
2022/12/21 00:47:56;;;;;;;42.30;23.33;;;4.40;99.90;;;;;;5069594;28;20255;-77
2022/12/21 00:50:45;;;;;;;41.33;23.90;;;4.40;99.90;;;;;;5069097;28;21769;-78
2022/12/21 00:53:35;;;;;;;44.97;23.67;;;4.40;99.90;;;;;;5066352;28;20455;-77
2022/12/21 00:56:25;;;;;;;39.57;22.30;;;4.50;99.90;;;;;;5062833;28;20228;-79
2022/12/21 00:59:14;;;;;;;39.67;23.23;;;4.50;99.90;;;;;;5071901;28;20726;-77
2022/12/21 01:02:03;;;;;;;43.40;23.57;;;4.60;99.90;;;;;;5050999;28;20982;-78
2022/12/21 01:04:52;;;;;;;40.83;22.93;;;4.50;99.90;;;;;;5052744;28;20297;-77
2022/12/21 01:07:41;;;;;;;38.77;22.90;;;4.50;99.90;;;;;;5050623;28;20219;-77
2022/12/21 01:10:31;;;;;;;43.23;22.57;;;4.40;99.90;;;;;;5055631;28;20289;-78
2022/12/21 01:13:22;;;;;;;40.77;22.57;;;4.40;99.90;;;;;;5070629;28;20225;-76
2022/12/21 01:16:13;;;;;;;45.30;24.03;;;4.30;99.90;;;;;;5050374;28;20224;-77
2022/12/21 01:19:08;;;;;;;40.57;23.50;;;4.40;99.90;;;;;;5046681;28;20229;-77
2022/12/21 01:21:57;;;;;;;41.57;22.37;;;4.40;99.90;;;;;;5057223;28;20228;-78
2022/12/21 01:24:48;;;;;;;43.33;23.37;;;4.20;99.90;;;;;;5069792;28;20615;-78
2022/12/21 01:27:38;;;;;;;42.80;23.57;;;4.30;99.90;;;;;;5063344;28;20220;-78
2022/12/21 01:30:28;;;;;;;39.27;22.10;;;4.30;99.90;;;;;;5075899;28;20231;-76
2022/12/21 01:33:19;;;;;;;43.40;23.27;;;4.40;99.90;;;;;;5067382;28;20219;-78
2022/12/21 01:36:12;;;;;;;38.57;21.57;;;4.40;99.90;;;;;;5081172;28;20361;-77
2022/12/21 01:39:02;;;;;;;38.37;21.20;;;4.40;99.90;;;;;;5069214;28;20278;-76
2022/12/21 01:41:51;;;;;;;42.87;22.67;;;4.50;99.90;;;;;;5063763;28;20232;-76
2022/12/21 01:45:02;;;;;;;41.27;22.93;;;4.40;99.90;;;;;;5084329;28;20227;-77
2022/12/21 01:47:55;;;;;;;42.00;23.53;;;4.50;99.90;;;;;;5073935;28;20231;-77
2022/12/21 01:50:49;;;;;;;41.13;22.97;;;4.40;99.90;;;;;;5060675;28;20607;-77
2022/12/21 01:53:44;;;;;;;40.90;24.23;;;4.40;99.90;;;;;;5074416;28;20216;-78
2022/12/21 01:56:37;;;;;;;41.80;23.03;;;4.40;99.90;;;;;;5064778;28;20357;-78
2022/12/21 01:59:30;;;;;;;39.83;22.60;;;4.30;99.90;;;;;;5061665;28;20227;-78
2022/12/21 02:02:23;;;;;;;40.47;22.77;;;4.20;99.90;;;;;;5091826;27;20239;-77
2022/12/21 02:05:17;;;;;;;41.97;22.90;;;4.30;99.90;;;;;;5095246;27;20220;-79
2022/12/21 02:08:06;;;;;;;39.00;23.00;;;4.40;99.90;;;;;;5099355;27;20673;-78
2022/12/21 02:10:58;;;;;;;42.07;23.53;;;4.40;99.90;;;;;;5095534;28;20310;-78
2022/12/21 02:13:47;;;;;;;41.73;24.03;;;4.40;99.90;;;;;;5097640;27;20227;-78
2022/12/21 02:16:46;;;;;;;42.80;23.70;;;4.40;99.90;;;;;;5093331;27;20223;-78
2022/12/21 02:20:20;;;;;;;47.33;25.60;;;4.40;99.90;;;;;;5103187;27;20223;-78
2022/12/21 02:23:34;;;;;;;42.47;23.87;;;4.40;99.90;;;;;;5128052;27;20226;-77
2022/12/21 02:26:40;;;;;;;43.23;23.10;;;4.20;99.90;;;;;;5094845;28;20223;-76
2022/12/21 02:29:55;;;;;;;45.30;24.43;;;4.20;99.90;;;;;;5094645;27;20249;-81
2022/12/21 02:32:59;;;;;;;42.77;23.77;;;4.20;99.90;;;;;;5124117;27;20218;-80
2022/12/21 02:36:06;;;;;;;39.10;23.67;;;4.30;99.90;;;;;;5093045;27;20242;-79
2022/12/21 02:39:03;;;;;;;49.13;25.50;;;4.40;99.90;;;;;;5099846;27;20229;-80
2022/12/21 02:42:01;;;;;;;46.67;24.83;;;4.40;99.90;;;;;;5105533;27;20207;-81
2022/12/21 02:44:52;;;;;;;43.23;24.50;;;4.30;99.90;;;;;;5118862;27;20972;-79
2022/12/21 02:47:47;;;;;;;42.73;23.97;;;4.20;99.90;;;;;;5105617;28;20603;-80
2022/12/21 02:50:43;;;;;;;45.20;24.33;;;4.30;99.90;;;;;;5103927;27;20231;-81
2022/12/21 02:53:35;;;;;;;45.10;24.10;;;4.40;99.90;;;;;;5109889;28;20225;-80
2022/12/21 02:56:24;;;;;;;43.87;24.40;;;4.40;99.90;;;;;;5139678;27;20218;-80
2022/12/21 02:59:17;;;;;;;46.97;24.67;;;4.40;99.90;;;;;;5116010;27;20214;-80
2022/12/21 03:02:41;;;;;;;42.67;24.70;;;4.40;99.90;;;;;;5102960;27;20219;-80
2022/12/21 03:05:44;;;;;;;45.83;23.60;;;4.30;99.90;;;;;;5124606;27;20269;-80
2022/12/21 03:08:43;;;;;;;42.00;24.17;;;4.30;99.90;;;;;;5092385;28;20308;-80
2022/12/21 03:11:41;;;;;;;45.33;23.97;;;4.30;99.90;;;;;;5124545;27;20281;-81
2022/12/21 03:14:45;;;;;;;44.17;23.63;;;4.30;99.90;;;;;;5095514;27;20248;-81
2022/12/21 03:17:42;;;;;;;43.67;23.97;;;4.30;99.90;;;;;;5102218;28;20271;-81
2022/12/21 03:20:37;;;;;;;43.80;23.97;;;4.30;99.90;;;;;;5098691;27;20222;-78
2022/12/21 03:23:32;;;;;;;42.20;22.77;;;4.40;99.90;;;;;;5104027;27;20261;-78
2022/12/21 03:26:29;;;;;;;43.20;23.30;;;4.40;99.90;;;;;;5107413;27;20223;-78
2022/12/21 03:29:22;;;;;;;40.60;24.03;;;4.50;99.90;;;;;;5088324;27;20215;-77
2022/12/21 03:32:15;;;;;;;45.37;24.43;;;4.40;99.90;;;;;;5101990;27;20211;-78
2022/12/21 03:35:09;;;;;;;42.60;24.07;;;4.40;99.90;;;;;;5117164;27;20219;-78
2022/12/21 03:38:02;;;;;;;42.30;24.13;;;4.40;99.90;;;;;;5093228;28;20223;-75
2022/12/21 03:40:56;;;;;;;45.23;24.70;;;4.30;99.90;;;;;;5090146;27;20227;-78
2022/12/21 03:43:50;;;;;;;47.30;24.23;;;4.40;99.90;;;;;;5099326;27;20303;-78
2022/12/21 03:46:42;;;;;;;43.13;23.93;;;4.40;99.90;;;;;;5110787;27;20235;-78
2022/12/21 03:49:35;;;;;;;40.77;23.50;;;4.40;99.90;;;;;;5112526;27;20226;-75
2022/12/21 03:52:30;;;;;;;48.50;25.10;;;4.40;99.90;;;;;;5090112;28;20219;-76
2022/12/21 03:55:23;;;;;;;46.37;24.77;;;4.30;99.90;;;;;;5100443;27;20322;-74
2022/12/21 03:58:13;;;;;;;41.53;23.53;;;4.40;99.90;;;;;;5125510;27;20290;-74
2022/12/21 04:01:10;;;;;;;42.87;23.63;;;4.40;99.90;;;;;;5099396;27;20963;-76
2022/12/21 04:04:06;;;;;;;46.60;24.73;;;4.40;99.90;;;;;;5115549;27;20306;-75
2022/12/21 04:06:57;;;;;;;45.20;25.00;;;4.40;99.90;;;;;;5100344;27;20231;-76
2022/12/21 04:09:46;;;;;;;43.93;24.87;;;4.40;99.90;;;;;;5103419;28;20706;-77
2022/12/21 04:12:38;;;;;;;44.63;24.83;;;4.30;99.90;;;;;;5096933;27;20222;-77
2022/12/21 04:16:03;;;;;;;40.87;23.77;;;4.30;99.90;;;;;;5094346;27;20595;-75
2022/12/21 04:21:45;;;;;;;45.23;24.27;;;4.40;99.90;;;;;;5096630;27;20215;-78
2022/12/21 04:31:07;;;;;;;48.60;24.23;;;4.20;99.90;;;;;;5097669;27;20278;-77
2022/12/21 04:33:56;;;;;;;49.73;26.63;;;4.20;99.90;;;;;;5099495;27;20227;-77
2022/12/21 04:39:51;;;;;;;49.43;27.23;;;4.10;99.90;;;;;;5125056;27;20236;-77
2022/12/21 04:42:40;;;;;;;47.70;26.40;;;4.20;99.90;;;;;;5103214;27;20218;-77
2022/12/21 04:45:29;;;;;;;53.90;26.97;;;4.20;99.90;;;;;;5102655;27;20264;-77
2022/12/21 04:48:19;;;;;;;47.60;25.73;;;4.20;99.90;;;;;;5096006;27;20249;-76
2022/12/21 04:51:10;;;;;;;45.73;25.37;;;4.10;99.90;;;;;;5095630;28;20705;-78
2022/12/21 04:53:59;;;;;;;48.67;27.30;;;4.20;99.90;;;;;;5097208;27;20251;-78
2022/12/21 04:56:48;;;;;;;49.00;26.27;;;4.20;99.90;;;;;;5097204;28;20215;-79
2022/12/21 04:59:37;;;;;;;50.63;26.77;;;4.20;99.90;;;;;;5107172;27;20273;-79
2022/12/21 05:02:27;;;;;;;45.03;25.43;;;4.20;99.90;;;;;;5099431;27;20218;-79
2022/12/21 05:05:18;;;;;;;52.17;27.73;;;4.00;99.90;;;;;;5103295;27;20235;-77
2022/12/21 05:08:07;;;;;;;49.07;27.33;;;4.00;99.90;;;;;;5129952;27;20290;-74
2022/12/21 05:10:56;;;;;;;50.37;27.50;;;4.00;99.90;;;;;;5098011;28;20231;-77
2022/12/21 05:13:45;;;;;;;46.60;25.67;;;4.10;99.90;;;;;;5092779;27;20590;-78
2022/12/21 05:16:34;;;;;;;49.83;25.83;;;4.10;99.90;;;;;;5093729;28;20273;-78
2022/12/21 05:19:24;;;;;;;50.57;27.07;;;4.00;99.90;;;;;;5122563;27;20224;-77
2022/12/21 05:22:16;;;;;;;53.43;27.73;;;4.00;99.90;;;;;;5112057;27;20232;-78
2022/12/21 05:25:05;;;;;;;54.00;27.93;;;3.90;99.90;;;;;;5088857;28;20762;-78
2022/12/21 05:27:54;;;;;;;57.33;26.67;;;3.80;99.90;;;;;;5092516;27;20234;-77
2022/12/21 05:30:43;;;;;;;50.03;27.07;;;3.80;99.90;;;;;;5095476;27;20299;-79
2022/12/21 05:33:32;;;;;;;52.83;27.13;;;3.80;99.90;;;;;;5087652;28;20219;-78
2022/12/21 05:36:21;;;;;;;54.70;27.93;;;3.80;99.90;;;;;;5098345;27;20218;-79
2022/12/21 05:39:11;;;;;;;55.73;26.90;;;3.90;99.90;;;;;;5098664;27;20233;-77
2022/12/21 05:42:01;;;;;;;51.30;26.90;;;3.80;99.90;;;;;;5102295;27;20248;-76
2022/12/21 05:44:50;;;;;;;50.67;27.80;;;3.90;99.90;;;;;;5099798;27;20295;-77
2022/12/21 05:47:39;;;;;;;52.10;27.70;;;3.90;99.90;;;;;;5104735;27;20245;-79
2022/12/21 05:50:27;;;;;;;53.77;27.63;;;3.80;99.90;;;;;;5105502;28;20218;-78
2022/12/21 05:53:16;;;;;;;53.83;26.63;;;3.90;99.90;;;;;;5097951;27;20726;-80
2022/12/21 05:56:08;;;;;;;49.87;26.83;;;3.90;99.90;;;;;;5096190;27;20334;-80
2022/12/21 05:58:57;;;;;;;55.00;27.47;;;3.90;99.90;;;;;;5101232;27;20218;-80
2022/12/21 06:01:46;;;;;;;50.90;25.77;;;4.00;99.90;;;;;;5097624;27;20227;-80
2022/12/21 06:04:35;;;;;;;51.37;27.40;;;4.00;99.90;;;;;;5093977;28;20261;-79
2022/12/21 06:07:24;;;;;;;51.33;26.50;;;4.10;99.90;;;;;;5093840;27;20223;-75
2022/12/21 06:10:13;;;;;;;47.33;26.13;;;4.00;99.90;;;;;;5086269;28;20226;-80
2022/12/21 06:13:03;;;;;;;46.27;26.00;;;4.00;99.90;;;;;;5093906;27;20231;-78
2022/12/21 06:15:52;;;;;;;51.17;27.77;;;3.90;99.90;;;;;;5094546;27;20223;-79
2022/12/21 06:18:42;;;;;;;49.27;25.23;;;3.90;99.90;;;;;;5092250;27;20310;-78
2022/12/21 06:21:31;;;;;;;49.30;26.57;;;4.00;99.90;;;;;;5096839;27;20800;-80
2022/12/21 06:24:21;;;;;;;47.63;24.80;;;4.00;99.90;;;;;;5097247;28;20220;-80
2022/12/21 06:27:10;;;;;;;48.67;26.03;;;4.10;99.90;;;;;;5084428;28;20712;-80
2022/12/21 06:30:00;;;;;;;49.23;25.43;;;3.90;99.90;;;;;;5090256;27;20243;-79
2022/12/21 06:32:49;;;;;;;50.00;26.23;;;3.80;99.90;;;;;;5094139;27;20215;-79
2022/12/21 06:35:38;;;;;;;46.50;25.90;;;4.00;99.90;;;;;;5089016;27;20227;-79
2022/12/21 06:38:28;;;;;;;49.47;25.53;;;4.00;99.90;;;;;;5092622;27;20356;-77
2022/12/21 06:41:18;;;;;;;51.73;26.70;;;4.00;99.90;;;;;;5092867;27;20239;-78
2022/12/21 06:44:08;;;;;;;47.87;25.60;;;4.00;99.90;;;;;;5093678;27;20245;-77
2022/12/21 06:46:59;;;;;;;43.27;25.10;;;4.00;99.90;;;;;;5090426;27;20888;-79
2022/12/21 06:49:48;;;;;;;42.33;24.73;;;4.10;99.90;;;;;;5089479;27;20229;-79
2022/12/21 06:52:41;;;;;;;46.97;24.60;;;4.20;99.90;;;;;;5115854;27;20586;-79
2022/12/21 06:55:30;;;;;;;44.77;23.83;;;4.20;99.90;;;;;;5097915;27;20223;-79
2022/12/21 06:58:19;;;;;;;43.93;23.47;;;4.00;99.90;;;;;;5092274;27;20717;-79
2022/12/21 07:01:10;;;;;;;41.93;23.87;;;4.10;99.90;;;;;;5087436;28;20302;-77
2022/12/21 07:04:01;;;;;;;44.93;24.37;;;4.10;99.90;;;;;;5094540;27;20219;-77
2022/12/21 07:06:53;;;;;;;45.27;24.10;;;4.20;99.90;;;;;;5088245;27;20215;-80
2022/12/21 07:09:42;;;;;;;43.20;25.27;;;4.20;99.90;;;;;;5094705;28;20216;-78
2022/12/21 07:12:31;;;;;;;47.80;24.80;;;4.20;99.90;;;;;;5092770;28;20219;-78
2022/12/21 07:15:20;;;;;;;45.97;23.13;;;4.20;99.90;;;;;;5120166;27;20223;-77
2022/12/21 07:18:09;;;;;;;43.23;23.57;;;4.10;99.90;;;;;;5099343;27;20218;-73
2022/12/21 07:21:02;;;;;;;42.33;23.77;;;4.20;99.90;;;;;;5089319;28;20276;-79
2022/12/21 07:23:51;;;;;;;45.53;22.90;;;4.20;99.90;;;;;;5095124;28;20306;-78
2022/12/21 07:26:41;;;;;;;43.00;23.03;;;4.20;99.90;;;;;;5105579;27;20225;-79
2022/12/21 07:29:29;;;;;;;41.40;22.83;;;4.20;99.90;;;;;;5094272;28;20227;-77
2022/12/21 07:32:18;;;;;;;42.20;22.87;;;4.20;99.90;;;;;;5106855;27;20218;-80
2022/12/21 07:35:08;;;;;;;42.17;23.03;;;4.30;99.90;;;;;;5103226;27;20234;-78
2022/12/21 07:37:59;;;;;;;42.83;24.10;;;4.20;99.90;;;;;;5107062;27;20776;-80
2022/12/21 07:40:48;;;;;;;41.47;22.83;;;4.20;99.90;;;;;;5097237;27;20229;-80
2022/12/21 07:43:37;;;;;;;41.43;22.77;;;4.20;99.90;;;;;;5099282;27;21870;-79
2022/12/21 07:46:52;;;;;;;43.17;23.80;;;4.30;99.90;;;;;;5090262;27;20215;-78
2022/12/21 07:49:44;;;;;;;40.77;23.53;;;4.30;99.90;;;;;;5112546;27;20219;-78
2022/12/21 07:52:34;;;;;;;42.77;22.90;;;4.30;99.90;;;;;;5101843;28;20701;-77
2022/12/21 07:55:25;;;;;;;45.20;23.27;;;4.40;99.90;;;;;;5094425;27;20772;-79
2022/12/21 07:58:13;;;;;;;46.40;23.40;;;4.40;99.90;;;;;;5089928;27;20230;-78
2022/12/21 08:01:06;;;;;;;43.37;23.17;;;4.40;99.90;;;;;;5089414;27;20242;-79
2022/12/21 08:03:57;;;;;;;42.73;23.50;;;4.40;99.90;;;;;;5100849;27;20219;-77
2022/12/21 08:06:46;;;;;;;40.00;22.67;;;4.50;99.90;;;;;;5098019;27;20245;-79
2022/12/21 08:09:35;;;;;;;38.70;22.23;;;4.50;99.90;;;;;;5097425;28;20230;-77
2022/12/21 08:12:25;;;;;;;46.10;23.47;;;4.50;99.90;;;;;;5095425;28;20356;-77
2022/12/21 08:15:14;;;;;;;41.37;22.40;;;4.40;99.90;;;;;;5090302;27;20220;-80
2022/12/21 08:18:03;;;;;;;43.33;23.97;;;4.30;99.90;;;;;;5107130;27;20227;-80
2022/12/21 08:20:58;;;;;;;42.53;23.03;;;4.40;99.90;;;;;;5099557;28;20704;-80
2022/12/21 08:23:48;;;;;;;43.37;22.90;;;4.30;99.90;;;;;;5123887;27;20306;-79
2022/12/21 08:26:37;;;;;;;40.47;22.17;;;4.50;99.90;;;;;;5095457;27;20231;-79
2022/12/21 08:29:27;;;;;;;42.73;23.93;;;4.50;99.90;;;;;;5094150;27;20253;-77
2022/12/21 08:32:16;;;;;;;42.07;23.33;;;4.50;99.90;;;;;;5107723;27;20748;-77
2022/12/21 08:35:05;;;;;;;42.17;23.07;;;4.60;99.90;;;;;;5093512;28;20221;-77
2022/12/21 08:37:54;;;;;;;37.63;22.70;;;4.60;99.90;;;;;;5100541;27;20720;-76
2022/12/21 08:40:44;;;;;;;37.57;22.73;;;4.60;99.90;;;;;;5103774;27;20252;-77
2022/12/21 08:43:35;;;;;;;40.73;22.70;;;4.70;99.90;;;;;;5094968;27;20336;-77
2022/12/21 08:46:26;;;;;;;39.43;22.77;;;4.70;99.90;;;;;;5099400;27;20715;-79
2022/12/21 08:49:15;;;;;;;41.77;23.43;;;4.80;99.90;;;;;;5104900;27;20346;-83
2022/12/21 08:52:05;;;;;;;43.07;23.63;;;4.80;99.90;;;;;;5122825;27;20275;-83
2022/12/21 08:54:54;;;;;;;40.93;23.67;;;4.80;99.90;;;;;;5097815;27;20226;-82
2022/12/21 08:57:43;;;;;;;43.67;23.47;;;4.80;99.90;;;;;;5088238;27;20224;-82
2022/12/21 09:00:31;;;;;;;44.87;23.97;;;4.70;99.90;;;;;;5095127;27;20231;-82
2022/12/21 09:03:22;;;;;;;46.33;24.13;;;4.80;99.90;;;;;;5094908;27;20222;-82
2022/12/21 09:06:11;;;;;;;40.53;23.43;;;4.80;99.90;;;;;;5095930;27;20220;-80
2022/12/21 09:09:03;;;;;;;42.27;24.20;;;4.90;99.90;;;;;;5097081;28;20223;-82
2022/12/21 09:11:52;;;;;;;45.70;24.40;;;5.00;99.90;;;;;;5091668;27;20590;-81
2022/12/21 09:14:42;;;;;;;44.13;24.87;;;5.00;99.90;;;;;;5099435;27;20219;-80
2022/12/21 09:17:31;;;;;;;48.83;24.07;;;5.10;99.90;;;;;;5099362;28;20957;-82
2022/12/21 09:20:21;;;;;;;44.43;23.70;;;5.10;99.90;;;;;;5124183;27;20219;-82
2022/12/21 09:23:11;;;;;;;43.90;23.87;;;5.10;99.90;;;;;;5115612;27;20219;-83
2022/12/21 09:26:01;;;;;;;45.07;24.03;;;5.10;99.90;;;;;;5103354;27;20790;-84
2022/12/21 09:28:50;;;;;;;44.33;25.20;;;5.20;99.90;;;;;;5096780;27;20749;-85
2022/12/21 09:31:39;;;;;;;42.27;24.20;;;5.20;99.90;;;;;;5117973;27;20574;-83
2022/12/21 09:34:29;;;;;;;41.50;23.43;;;5.20;99.90;;;;;;5095447;28;20214;-82
2022/12/21 09:37:20;;;;;;;41.83;23.17;;;5.10;99.90;;;;;;5105186;27;20340;-83
2022/12/21 09:40:15;;;;;;;45.83;24.43;;;5.10;99.90;;;;;;5098900;27;20245;-82
2022/12/21 09:43:13;;;;;;;45.77;23.37;;;5.10;99.90;;;;;;5117280;27;20226;-83
2022/12/21 09:46:04;;;;;;;43.87;23.43;;;5.20;99.90;;;;;;5091758;28;20373;-77
2022/12/21 09:48:57;;;;;;;43.37;23.33;;;5.30;99.90;;;;;;5091158;27;20688;-77
2022/12/21 09:51:51;;;;;;;48.03;25.70;;;5.40;99.90;;;;;;5099864;27;20215;-78
2022/12/21 09:54:43;;;;;;;43.07;24.90;;;5.30;99.90;;;;;;5091301;28;20234;-77
2022/12/21 09:57:36;;;;;;;42.47;23.67;;;5.30;99.90;;;;;;5100237;28;20214;-77
2022/12/21 10:00:26;;;;;;;41.53;22.70;;;5.30;99.90;;;;;;5091858;27;20210;-77
2022/12/21 10:03:45;;;;;;;41.23;24.33;;;5.30;99.90;;;;;;5094411;27;20248;-77
2022/12/21 10:06:56;;;;;;;42.23;23.87;;;5.30;99.90;;;;;;5103593;27;20298;-76
2022/12/21 10:10:02;;;;;;;41.33;22.07;;;5.30;99.90;;;;;;5093500;27;20242;-77
2022/12/21 10:12:58;;;;;;;39.30;23.20;;;5.40;99.90;;;;;;5087870;28;20237;-77
2022/12/21 10:16:00;;;;;;;43.40;23.00;;;5.40;99.90;;;;;;5096437;27;20223;-76
2022/12/21 10:18:59;;;;;;;40.47;23.20;;;5.50;99.90;;;;;;5099921;27;20229;-75
2022/12/21 10:21:56;;;;;;;39.57;22.63;;;5.50;99.90;;;;;;5098972;27;20962;-76
2022/12/21 10:24:49;;;;;;;42.07;22.63;;;5.60;99.90;;;;;;5099947;27;21001;-78
2022/12/21 10:27:43;;;;;;;39.67;21.77;;;5.50;99.90;;;;;;5099239;27;20227;-77
2022/12/21 10:30:33;;;;;;;38.70;23.10;;;5.50;99.90;;;;;;5125821;27;20226;-76
2022/12/21 10:33:24;;;;;;;38.30;21.63;;;5.50;99.90;;;;;;5095358;28;20218;-79
2022/12/21 10:36:16;;;;;;;43.70;23.07;;;5.50;99.90;;;;;;5105542;27;20211;-79
2022/12/21 10:39:05;;;;;;;40.57;22.80;;;5.50;99.90;;;;;;5095023;27;20728;-79
2022/12/21 10:42:02;;;;;;;44.97;22.67;;;5.40;99.90;;;;;;5096790;27;20329;-79
2022/12/21 10:44:53;;;;;;;40.10;22.63;;;5.50;99.90;;;;;;5097173;27;20227;-80
2022/12/21 10:47:44;;;;;;;40.20;22.43;;;5.50;99.90;;;;;;5093592;28;20223;-80
2022/12/21 10:50:34;;;;;;;42.53;22.93;;;5.50;99.90;;;;;;5101258;28;20223;-79
2022/12/21 10:53:25;;;;;;;40.07;21.83;;;5.50;99.90;;;;;;5098586;27;20594;-79
2022/12/21 10:56:16;;;;;;;42.63;22.50;;;5.50;99.90;;;;;;5097016;27;20799;-79
2022/12/21 10:59:15;;;;;;;37.30;21.80;;;5.50;99.90;;;;;;5106064;27;20222;-78
2022/12/21 11:02:07;;;;;;;35.77;21.27;;;5.50;99.90;;;;;;5095130;27;20226;-78
2022/12/21 11:04:56;;;;;;;37.17;21.80;;;5.50;99.90;;;;;;5096768;28;20228;-77
2022/12/21 11:07:45;;;;;;;37.93;21.80;;;5.40;99.90;;;;;;5087822;27;20223;-78
2022/12/21 11:10:50;;;;;;;40.13;21.70;;;5.50;99.90;;;;;;5092756;27;20231;-79
2022/12/21 11:13:42;;;;;;;38.37;21.07;;;5.50;99.90;;;;;;5102602;27;20696;-78
2022/12/21 11:16:32;;;;;;;37.70;22.10;;;5.50;99.90;;;;;;5093090;27;20219;-78
2022/12/21 11:19:23;;;;;;;39.87;22.30;;;5.40;99.90;;;;;;5090515;28;20226;-78
2022/12/21 11:22:14;;;;;;;39.80;22.07;;;5.20;99.90;;;;;;5090766;27;20223;-76
2022/12/21 11:25:26;;;;;;;44.57;22.83;;;5.30;99.90;;;;;;5095677;28;20211;-75
2022/12/21 11:28:24;;;;;;;42.50;23.13;;;5.50;99.90;;;;;;5085253;27;20227;-76
2022/12/21 11:31:12;;;;;;;40.60;22.73;;;5.50;99.90;;;;;;5089619;28;20223;-79
2022/12/21 11:34:02;;;;;;;40.03;23.43;;;5.50;99.90;;;;;;5096681;27;20219;-79
2022/12/21 11:37:00;;;;;;;39.43;22.23;;;5.60;99.90;;;;;;5094276;27;20952;-79
2022/12/21 11:40:08;;;;;;;39.57;22.37;;;5.60;99.90;;;;;;5087226;28;20227;-78
2022/12/21 11:43:03;;;;;;;41.53;23.17;;;5.70;99.90;;;;;;5087846;27;20226;-79
2022/12/21 11:46:11;;;;;;;40.20;22.73;;;5.80;99.90;;;;;;5118363;27;20264;-79
2022/12/21 11:49:59;;;;;;;41.50;22.73;;;5.80;99.90;;;;;;5096479;27;20226;-76
2022/12/21 11:53:11;;;;;;;44.53;23.40;;;5.80;99.90;;;;;;5102323;27;20244;-78
2022/12/21 11:56:13;;;;;;;45.20;23.70;;;5.70;99.90;;;;;;5115285;27;20230;-79
2022/12/21 11:59:32;;;;;;;44.27;23.80;;;5.80;99.90;;;;;;5098045;28;20223;-78
2022/12/21 12:02:45;;;;;;;43.13;23.33;;;5.80;99.90;;;;;;5094858;28;20717;-77
2022/12/21 12:05:47;;;;;;;41.67;22.80;;;5.90;99.90;;;;;;5096475;27;20233;-78
2022/12/21 12:08:53;;;;;;;40.17;22.33;;;5.90;99.90;;;;;;5103023;28;20240;-77
2022/12/21 12:11:52;;;;;;;36.80;21.93;;;6.00;99.90;;;;;;5093413;28;20238;-82
2022/12/21 12:15:08;;;;;;;42.03;21.87;;;5.90;99.90;;;;;;5111446;27;20223;-80
2022/12/21 12:18:07;;;;;;;40.10;22.33;;;6.00;99.90;;;;;;5127865;27;20245;-77
2022/12/21 12:21:46;;;;;;;44.07;24.90;;;6.00;99.90;;;;;;5093893;27;20846;-78
2022/12/21 12:25:09;;;;;;;43.93;24.43;;;5.90;99.90;;;;;;5055990;28;20224;-78
2022/12/21 12:28:15;;;;;;;41.53;23.00;;;6.00;99.90;;;;;;5051946;28;20216;-77
2022/12/21 12:31:17;;;;;;;40.60;22.60;;;5.90;99.90;;;;;;5096690;27;20223;-78
2022/12/21 12:34:25;;;;;;;38.27;22.93;;;5.90;99.90;;;;;;5117605;27;20215;-79
2022/12/21 12:37:28;;;;;;;42.03;22.00;;;5.90;99.90;;;;;;5090838;27;20230;-79
2022/12/21 12:40:30;;;;;;;41.23;22.47;;;5.90;99.90;;;;;;5095122;27;20223;-79
2022/12/21 12:43:30;;;;;;;41.13;23.10;;;5.90;99.90;;;;;;5090670;28;20693;-79
2022/12/21 12:46:42;;;;;;;40.33;22.73;;;5.90;99.90;;;;;;5113226;27;20223;-81
2022/12/21 12:49:56;;;;;;;40.50;22.53;;;5.90;99.90;;;;;;5101441;27;20215;-81
2022/12/21 12:53:13;;;;;;;41.17;23.10;;;5.90;99.90;;;;;;5103106;27;20889;-80
2022/12/21 12:56:14;;;;;;;42.43;23.03;;;5.90;99.90;;;;;;5111878;27;20225;-79
2022/12/21 12:59:09;;;;;;;40.73;22.47;;;5.90;99.90;;;;;;5101350;27;20218;-79
2022/12/21 13:02:07;;;;;;;37.07;22.47;;;6.00;99.90;;;;;;5099031;27;20214;-79
2022/12/21 13:05:11;;;;;;;43.33;23.23;;;6.00;99.90;;;;;;5101221;27;20538;-78
2022/12/21 13:08:10;;;;;;;46.43;23.77;;;5.90;99.90;;;;;;5093286;27;20223;-79
2022/12/21 13:11:10;;;;;;;43.00;23.37;;;5.90;99.90;;;;;;5096933;27;20238;-79
2022/12/21 13:14:05;;;;;;;38.53;22.47;;;5.90;99.90;;;;;;5093522;28;20571;-77
2022/12/21 13:17:01;;;;;;;43.77;23.57;;;5.90;99.90;;;;;;5098691;27;20220;-79
2022/12/21 13:19:52;;;;;;;40.20;22.83;;;5.90;99.90;;;;;;5123046;27;20263;-79
2022/12/21 13:22:41;;;;;;;38.53;23.00;;;6.00;99.90;;;;;;5094416;27;20249;-80
2022/12/21 13:25:39;;;;;;;40.57;23.70;;;6.00;99.90;;;;;;5105905;27;20223;-78
2022/12/21 13:28:35;;;;;;;38.77;22.87;;;6.00;99.90;;;;;;5098590;28;20211;-78
2022/12/21 13:31:33;;;;;;;42.57;23.10;;;5.90;99.90;;;;;;5096461;27;20219;-78
2022/12/21 13:34:36;;;;;;;43.53;24.23;;;5.90;99.90;;;;;;5110113;27;20222;-79
2022/12/21 13:37:26;;;;;;;42.90;22.97;;;5.90;99.90;;;;;;5092638;27;20225;-79
2022/12/21 13:40:19;;;;;;;37.33;22.20;;;5.80;99.90;;;;;;5094349;27;20268;-79
2022/12/21 13:43:16;;;;;;;40.00;22.13;;;5.90;99.90;;;;;;5105333;27;20313;-78
2022/12/21 13:46:07;;;;;;;40.10;22.33;;;5.80;99.90;;;;;;5074415;28;20238;-79
2022/12/21 13:49:07;;;;;;;40.37;22.30;;;5.90;99.90;;;;;;5077784;28;20342;-79
2022/12/21 13:52:00;;;;;;;38.73;22.67;;;6.00;99.90;;;;;;5061415;28;20640;-79
2022/12/21 13:54:56;;;;;;;39.10;21.97;;;6.00;99.90;;;;;;5059416;28;20563;-79
2022/12/21 13:57:53;;;;;;;38.80;22.30;;;6.00;99.90;;;;;;5074230;28;20275;-80
2022/12/21 14:00:48;;;;;;;41.37;23.20;;;6.00;99.90;;;;;;5062140;28;20301;-79
2022/12/21 14:03:44;;;;;;;42.23;23.27;;;6.00;99.90;;;;;;5052605;28;20221;-80
2022/12/21 14:07:10;;;;;;;42.83;23.47;;;5.90;99.90;;;;;;5086225;28;20223;-80
2022/12/21 14:10:14;;;;;;;40.90;23.73;;;5.80;99.90;;;;;;5037658;28;20219;-80
2022/12/21 14:13:50;;;;;;;42.50;24.00;;;5.80;99.90;;;;;;5062259;28;20345;-78
2022/12/21 14:16:39;;;;;;;41.83;22.17;;;5.90;99.90;;;;;;5053055;28;20224;-79
2022/12/21 14:19:31;;;;;;;43.00;24.00;;;5.90;99.90;;;;;;5053306;28;20250;-80
2022/12/21 14:22:38;;;;;;;38.77;22.77;;;5.90;99.90;;;;;;5052532;28;20283;-80
2022/12/21 14:25:34;;;;;;;43.73;24.20;;;5.80;99.90;;;;;;5055214;28;20699;-81
2022/12/21 14:28:25;;;;;;;40.90;23.23;;;5.80;99.90;;;;;;5069454;28;20271;-80
2022/12/21 14:31:20;;;;;;;41.43;23.77;;;5.80;99.90;;;;;;5081620;28;20228;-81
2022/12/21 14:34:10;;;;;;;44.53;24.37;;;5.80;99.90;;;;;;5055461;28;20761;-78
2022/12/21 14:37:29;;;;;;;39.87;23.80;;;5.80;99.90;;;;;;5045439;28;20223;-80
2022/12/21 14:40:26;;;;;;;43.40;23.87;;;5.80;99.90;;;;;;5090992;28;20239;-80
2022/12/21 14:43:18;;;;;;;41.43;23.23;;;5.70;99.90;;;;;;5071261;28;20225;-81
2022/12/21 14:46:26;;;;;;;40.70;23.40;;;5.70;99.90;;;;;;5061004;28;20234;-80
2022/12/21 14:49:28;;;;;;;44.90;23.83;;;5.70;99.90;;;;;;5081770;28;20228;-77
2022/12/21 14:52:34;;;;;;;39.87;23.70;;;5.70;99.90;;;;;;5047428;28;20909;-77
2022/12/21 14:55:35;;;;;;;45.43;25.30;;;5.70;99.90;;;;;;5074746;28;20263;-79
2022/12/21 14:58:26;;;;;;;41.03;23.10;;;5.60;99.90;;;;;;5077434;28;20283;-79
2022/12/21 15:01:36;;;;;;;40.53;23.60;;;5.60;99.90;;;;;;5058123;28;20380;-79
2022/12/21 15:04:29;;;;;;;48.57;25.70;;;5.50;99.90;;;;;;5058015;28;20264;-78
2022/12/21 15:07:21;;;;;;;45.93;24.57;;;5.50;99.90;;;;;;5059896;28;20263;-77
2022/12/21 15:10:25;;;;;;;44.77;25.27;;;5.40;99.90;;;;;;5057604;28;20259;-78
2022/12/21 15:13:44;;;;;;;46.93;24.67;;;5.40;99.90;;;;;;5083539;28;20216;-78